createdAt,value
2022-11-18T00:01:38.825Z,85.93
2022-11-18T00:04:08.001Z,86.02
2022-11-18T00:06:37.048Z,86.08
2022-11-18T00:09:05.924Z,86.10
2022-11-18T00:11:53.244Z,86.08
2022-11-18T00:14:27.754Z,86.00
2022-11-18T00:17:00.404Z,86.02
2022-11-18T00:19:32.141Z,85.95
2022-11-18T00:22:01.873Z,85.92
2022-11-18T00:24:31.014Z,85.99
2022-11-18T00:26:59.771Z,85.93
2022-11-18T00:29:29.083Z,86.04
2022-11-18T00:31:58.898Z,85.99
2022-11-18T00:34:27.581Z,85.97
2022-11-18T00:36:56.539Z,85.82
2022-11-18T00:39:26.436Z,85.85
2022-11-18T00:42:13.760Z,85.83
2022-11-18T00:44:42.811Z,85.86
2022-11-18T00:47:11.411Z,85.96
2022-11-18T00:49:40.310Z,85.92
2022-11-18T00:52:09.519Z,86.03
2022-11-18T00:54:38.065Z,86.11
2022-11-18T00:57:07.097Z,85.87
2022-11-18T00:59:35.901Z,85.81
2022-11-18T01:02:04.499Z,85.85
2022-11-18T01:04:33.657Z,85.95
2022-11-18T01:07:02.674Z,85.83
2022-11-18T01:09:32.892Z,85.78
2022-11-18T01:12:20.239Z,85.87
2022-11-18T01:14:49.087Z,85.85
2022-11-18T01:17:17.976Z,85.66
2022-11-18T01:19:47.228Z,85.83
2022-11-18T01:22:15.903Z,85.83
2022-11-18T01:24:44.848Z,85.90
2022-11-18T01:27:13.612Z,85.82
2022-11-18T01:29:42.511Z,85.91
2022-11-18T01:32:24.344Z,85.73
2022-11-18T01:34:54.523Z,85.77
2022-11-18T01:37:23.281Z,85.91
2022-11-18T01:39:51.917Z,85.81
2022-11-18T01:42:24.283Z,85.64
2022-11-18T01:45:27.481Z,85.78
2022-11-18T01:48:18.980Z,85.73
2022-11-18T01:50:52.593Z,85.79
2022-11-18T01:53:32.015Z,85.85
2022-11-18T01:56:04.708Z,85.83
2022-11-18T01:58:39.756Z,85.85
2022-11-18T02:01:08.976Z,85.80
2022-11-18T02:03:39.063Z,85.62
2022-11-18T02:06:10.639Z,85.66
2022-11-18T02:08:40.703Z,85.60
2022-11-18T02:11:35.220Z,85.64
2022-11-18T02:14:08.294Z,85.61
2022-11-18T02:17:11.208Z,85.53
2022-11-18T02:20:13.055Z,85.51
2022-11-18T02:23:10.040Z,85.57
2022-11-18T02:26:06.395Z,85.54
2022-11-18T02:29:09.592Z,85.42
2022-11-18T02:31:52.815Z,85.34
2022-11-18T02:34:43.507Z,85.39
2022-11-18T02:37:24.284Z,85.47
2022-11-18T02:40:05.076Z,85.70
2022-11-18T02:42:37.433Z,85.52
2022-11-18T02:45:11.445Z,85.39
2022-11-18T02:47:43.547Z,85.48
2022-11-18T02:50:17.006Z,85.49
2022-11-18T02:52:47.495Z,85.60
2022-11-18T02:55:17.746Z,85.30
2022-11-18T02:57:48.152Z,85.36
2022-11-18T03:00:17.596Z,85.52
2022-11-18T03:02:50.416Z,85.46
2022-11-18T03:05:49.350Z,85.40
2022-11-18T03:08:26.528Z,85.49
2022-11-18T03:11:11.518Z,85.54
2022-11-18T03:13:55.900Z,85.48
2022-11-18T03:16:32.248Z,85.63
2022-11-18T03:19:29.612Z,85.41
2022-11-18T03:22:18.104Z,85.45
2022-11-18T03:25:01.271Z,85.26
2022-11-18T03:27:37.373Z,85.40
2022-11-18T03:30:11.095Z,85.12
2022-11-18T03:32:44.019Z,85.34
2022-11-18T03:35:19.854Z,85.39
2022-11-18T03:37:52.012Z,85.34
2022-11-18T03:40:25.458Z,85.43
2022-11-18T03:43:01.352Z,85.40
2022-11-18T03:45:38.067Z,85.29
2022-11-18T03:48:29.137Z,85.31
2022-11-18T03:50:57.936Z,85.30
2022-11-18T03:53:31.314Z,85.39
2022-11-18T03:56:08.774Z,85.21
2022-11-18T03:58:48.257Z,85.27
2022-11-18T04:01:24.656Z,85.36
2022-11-18T04:03:53.573Z,85.29
2022-11-18T04:06:31.791Z,85.43
2022-11-18T04:09:07.736Z,85.44
2022-11-18T04:12:05.011Z,85.55
2022-11-18T04:14:39.785Z,85.31
2022-11-18T04:17:22.277Z,85.33
2022-11-18T04:19:51.460Z,85.08
2022-11-18T04:22:20.509Z,85.36
2022-11-18T04:24:49.623Z,85.37
2022-11-18T04:27:18.922Z,85.32
2022-11-18T04:29:47.483Z,85.37
2022-11-18T04:32:16.448Z,85.44
2022-11-18T04:34:45.641Z,85.60
2022-11-18T04:37:14.342Z,85.45
2022-11-18T04:39:43.247Z,85.34
2022-11-18T04:42:12.476Z,85.19
2022-11-18T04:44:41.309Z,85.21
2022-11-18T04:47:11.324Z,85.38
2022-11-18T04:49:40.515Z,85.50
2022-11-18T04:52:11.429Z,85.50
2022-11-18T04:54:40.180Z,85.64
2022-11-18T04:57:09.469Z,85.59
2022-11-18T04:59:38.283Z,85.50
2022-11-18T05:02:07.562Z,85.47
2022-11-18T05:04:36.959Z,85.31
2022-11-18T05:07:06.400Z,85.56
2022-11-18T05:09:35.581Z,85.56
2022-11-18T05:12:23.376Z,85.56
2022-11-18T05:14:52.079Z,85.41
2022-11-18T05:17:20.914Z,85.60
2022-11-18T05:19:49.491Z,85.54
2022-11-18T05:22:18.832Z,85.31
2022-11-18T05:24:47.581Z,85.54
2022-11-18T05:27:16.788Z,85.46
2022-11-18T05:29:45.950Z,85.53
2022-11-18T05:32:14.791Z,85.47
2022-11-18T05:34:43.848Z,85.54
2022-11-18T05:37:13.413Z,85.40
2022-11-18T05:39:42.428Z,85.48
2022-11-18T05:42:29.809Z,85.51
2022-11-18T05:44:59.133Z,85.65
2022-11-18T05:47:27.874Z,85.61
2022-11-18T05:49:57.091Z,85.58
2022-11-18T05:52:26.241Z,85.45
2022-11-18T05:54:55.147Z,85.73
2022-11-18T05:57:24.086Z,85.76
2022-11-18T05:59:52.969Z,85.49
2022-11-18T06:02:24.877Z,85.58
2022-11-18T06:05:01.599Z,85.44
2022-11-18T06:07:36.270Z,85.65
2022-11-18T06:10:06.389Z,85.66
2022-11-18T06:12:42.434Z,85.39
2022-11-18T06:15:18.915Z,85.57
2022-11-18T06:18:11.785Z,85.70
2022-11-18T06:20:41.965Z,85.65
2022-11-18T06:23:11.717Z,85.65
2022-11-18T06:25:41.831Z,85.61
2022-11-18T06:28:14.336Z,85.91
2022-11-18T06:30:43.542Z,85.60
2022-11-18T06:33:12.230Z,85.57
2022-11-18T06:35:42.922Z,85.63
2022-11-18T06:38:12.032Z,85.63
2022-11-18T06:40:44.971Z,85.79
2022-11-18T06:43:32.699Z,85.95
2022-11-18T06:46:21.767Z,85.95
2022-11-18T06:48:50.740Z,86.14
2022-11-18T06:51:20.273Z,86.07
2022-11-18T06:53:48.967Z,85.80
2022-11-18T06:56:19.612Z,85.83
2022-11-18T06:58:53.860Z,85.83
2022-11-18T07:01:25.635Z,85.93
2022-11-18T07:03:54.956Z,85.72
2022-11-18T07:06:25.837Z,85.72
2022-11-18T07:08:55.475Z,86.01
2022-11-18T07:11:26.497Z,85.92
2022-11-18T07:13:55.675Z,85.71
2022-11-18T07:16:26.508Z,85.86
2022-11-18T07:18:56.514Z,86.00
2022-11-18T07:21:27.897Z,85.84
2022-11-18T07:23:57.313Z,85.86
2022-11-18T07:26:26.414Z,85.61
2022-11-18T07:28:55.045Z,85.76
2022-11-18T07:31:23.918Z,85.66
2022-11-18T07:33:56.064Z,85.84
2022-11-18T07:36:34.000Z,85.89
2022-11-18T07:39:06.897Z,85.91
2022-11-18T07:41:39.350Z,85.96
2022-11-18T07:44:08.309Z,85.66
2022-11-18T07:46:38.209Z,85.78
2022-11-18T07:49:09.415Z,85.64
2022-11-18T07:51:40.661Z,85.64
2022-11-18T07:54:12.242Z,85.64
2022-11-18T07:56:41.385Z,85.79
2022-11-18T07:59:10.060Z,85.97
2022-11-18T08:01:38.801Z,85.69
2022-11-18T08:04:11.671Z,85.60
2022-11-18T08:06:40.924Z,85.99
2022-11-18T08:09:10.498Z,85.71
2022-11-18T08:11:42.836Z,85.62
2022-11-18T08:14:11.788Z,85.58
2022-11-18T08:16:40.310Z,85.56
2022-11-18T08:19:09.200Z,85.73
2022-11-18T08:21:38.317Z,85.62
2022-11-18T08:24:07.253Z,85.79
2022-11-18T08:26:36.483Z,85.87
2022-11-18T08:29:05.579Z,85.83
2022-11-18T08:31:34.196Z,85.89
2022-11-18T08:34:06.789Z,85.60
2022-11-18T08:36:38.212Z,85.62
2022-11-18T08:39:09.385Z,85.74
2022-11-18T08:41:40.680Z,85.49
2022-11-18T08:44:13.427Z,85.75
2022-11-18T08:46:43.333Z,85.72
2022-11-18T08:49:12.386Z,85.70
2022-11-18T08:51:41.289Z,85.77
2022-11-18T08:54:10.160Z,85.82
2022-11-18T08:56:39.479Z,85.66
2022-11-18T08:59:09.472Z,85.60
2022-11-18T09:01:57.572Z,85.52
2022-11-18T09:04:50.794Z,85.52
2022-11-18T09:07:20.967Z,85.67
2022-11-18T09:09:50.802Z,85.63
2022-11-18T09:12:19.639Z,85.67
2022-11-18T09:17:37.284Z,85.60
2022-11-18T09:20:19.108Z,85.69
2022-11-18T09:22:47.856Z,85.83
2022-11-18T09:25:17.247Z,85.99
2022-11-18T09:27:45.847Z,85.95
2022-11-18T09:30:14.842Z,85.81
2022-11-18T09:32:43.503Z,85.66
2022-11-18T09:35:12.136Z,85.65
2022-11-18T09:37:40.985Z,85.74
2022-11-18T09:40:19.684Z,85.73
2022-11-18T09:43:12.817Z,85.66
2022-11-18T09:45:49.316Z,85.50
2022-11-18T09:48:21.016Z,85.50
2022-11-18T09:50:51.053Z,85.35
2022-11-18T09:53:26.716Z,85.31
2022-11-18T09:55:56.161Z,85.11
2022-11-18T09:58:34.642Z,85.29
2022-11-18T10:01:10.809Z,85.36
2022-11-18T10:03:41.045Z,85.35
2022-11-18T10:06:10.384Z,85.21
2022-11-18T10:09:06.926Z,85.11
2022-11-18T10:11:51.605Z,85.30
2022-11-18T10:14:42.957Z,84.93
2022-11-18T10:17:14.927Z,84.65
2022-11-18T10:20:05.575Z,84.67
2022-11-18T10:22:56.965Z,84.56
2022-11-18T10:25:27.880Z,84.61
2022-11-18T10:28:01.457Z,84.46
2022-11-18T10:30:31.600Z,84.36
2022-11-18T10:33:17.556Z,84.49
2022-11-18T10:35:46.601Z,84.08
2022-11-18T10:38:15.867Z,84.12
2022-11-18T10:40:51.165Z,84.40
2022-11-18T10:43:53.327Z,84.59
2022-11-18T10:46:27.819Z,84.38
2022-11-18T10:49:09.389Z,84.10
2022-11-18T10:52:04.763Z,83.92
2022-11-18T10:54:34.674Z,84.29
2022-11-18T10:57:23.552Z,84.41
2022-11-18T10:59:58.126Z,84.31
2022-11-18T11:02:34.183Z,83.69
2022-11-18T11:05:16.528Z,83.60
2022-11-18T11:07:45.465Z,83.89
2022-11-18T11:10:20.938Z,83.51
2022-11-18T11:12:56.606Z,83.53
2022-11-18T11:15:36.808Z,83.50
2022-11-18T11:18:29.424Z,83.43
2022-11-18T11:20:58.194Z,83.66
2022-11-18T11:23:27.503Z,83.12
2022-11-18T11:29:28.027Z,83.06
2022-11-18T11:32:28.016Z,83.41
2022-11-18T11:35:26.335Z,83.28
2022-11-18T11:37:59.451Z,83.53
2022-11-18T11:40:31.419Z,83.18
2022-11-18T11:43:32.884Z,83.16
2022-11-18T11:46:10.648Z,83.25
2022-11-18T11:48:53.675Z,83.16
2022-11-18T11:51:46.029Z,82.97
2022-11-18T11:54:24.343Z,83.18
2022-11-18T12:00:47.199Z,82.74
2022-11-18T12:03:21.419Z,82.74
2022-11-18T12:05:50.099Z,82.60
2022-11-18T12:08:33.336Z,82.21
2022-11-18T12:11:08.036Z,82.50
2022-11-18T12:13:57.570Z,81.93
2022-11-18T12:16:37.211Z,82.25
2022-11-18T12:19:12.037Z,81.98
2022-11-18T12:21:46.854Z,81.54
2022-11-18T12:24:36.898Z,81.59
2022-11-18T12:27:37.684Z,81.32
2022-11-18T12:30:19.243Z,81.88
2022-11-18T12:32:48.087Z,81.65
2022-11-18T12:35:31.626Z,81.74
2022-11-18T12:38:02.507Z,81.98
2022-11-18T12:40:37.398Z,81.40
2022-11-18T12:43:46.176Z,81.12
2022-11-18T12:46:44.393Z,81.33
2022-11-18T12:49:23.483Z,81.66
2022-11-18T12:51:58.608Z,81.59
2022-11-18T12:54:46.713Z,81.43
2022-11-18T12:57:23.217Z,81.21
2022-11-18T12:59:52.141Z,81.25
2022-11-18T13:02:26.310Z,81.27
2022-11-18T13:05:11.196Z,80.68
2022-11-18T13:08:13.515Z,80.53
2022-11-18T13:11:33.266Z,80.55
2022-11-18T13:14:23.492Z,80.32
2022-11-18T13:17:10.914Z,80.25
2022-11-18T13:19:40.106Z,80.50
2022-11-18T13:22:37.843Z,80.94
2022-11-18T13:25:22.497Z,80.39
2022-11-18T13:28:25.280Z,80.45
2022-11-18T13:31:07.574Z,80.68
2022-11-18T13:33:39.677Z,80.47
2022-11-18T13:36:43.751Z,80.48
2022-11-18T13:39:21.712Z,80.61
2022-11-18T13:42:16.497Z,79.92
2022-11-18T13:44:56.350Z,79.77
2022-11-18T13:47:36.532Z,80.18
2022-11-18T13:50:28.104Z,80.35
2022-11-18T13:53:07.956Z,80.29
2022-11-18T13:55:48.021Z,79.82
2022-11-18T13:58:20.365Z,79.77
2022-11-18T14:00:58.207Z,79.85
2022-11-18T14:03:33.424Z,80.31
2022-11-18T14:06:02.915Z,79.97
2022-11-18T14:08:34.259Z,79.76
2022-11-18T14:11:03.649Z,79.55
2022-11-18T14:13:35.281Z,80.04
2022-11-18T14:16:24.079Z,80.16
2022-11-18T14:18:53.154Z,79.71
2022-11-18T14:21:29.554Z,80.06
2022-11-18T14:23:58.560Z,80.21
2022-11-18T14:26:36.012Z,79.81
2022-11-18T14:29:23.353Z,79.32
2022-11-18T14:32:14.273Z,79.36
2022-11-18T14:34:43.137Z,79.22
2022-11-18T14:37:13.909Z,79.16
2022-11-18T14:39:42.633Z,79.37
2022-11-18T14:42:13.513Z,79.20
2022-11-18T14:44:42.241Z,78.96
2022-11-18T14:47:28.977Z,79.08
2022-11-18T14:49:58.773Z,79.15
2022-11-18T14:52:29.075Z,78.87
2022-11-18T14:54:57.837Z,78.84
2022-11-18T14:57:26.805Z,78.95
2022-11-18T14:59:55.395Z,78.92
2022-11-18T15:02:24.263Z,78.83
2022-11-18T15:04:53.519Z,78.77
2022-11-18T15:07:24.121Z,78.69
2022-11-18T15:09:53.113Z,78.70
2022-11-18T15:12:21.802Z,78.34
2022-11-18T15:14:50.569Z,78.22
2022-11-18T15:17:20.459Z,78.42
2022-11-18T15:19:49.440Z,78.38
2022-11-18T15:22:18.350Z,78.16
2022-11-18T15:24:47.103Z,78.63
2022-11-18T15:27:15.853Z,78.53
2022-11-18T15:29:45.127Z,78.25
2022-11-18T15:32:13.743Z,78.47
2022-11-18T15:34:42.684Z,77.87
2022-11-18T15:37:12.926Z,77.72
2022-11-18T15:39:41.554Z,77.57
2022-11-18T15:42:12.141Z,77.61
2022-11-18T15:44:40.823Z,77.60
2022-11-18T15:47:09.901Z,77.82
2022-11-18T15:49:44.575Z,77.23
2022-11-18T15:52:13.520Z,77.93
2022-11-18T15:54:42.357Z,77.84
2022-11-18T15:57:10.900Z,77.69
2022-11-18T15:59:40.167Z,77.96
2022-11-18T16:02:11.338Z,78.01
2022-11-18T16:04:40.290Z,78.04
2022-11-18T16:07:09.613Z,78.07
2022-11-18T16:09:57.211Z,77.98
2022-11-18T16:12:44.768Z,78.00
2022-11-18T16:15:33.379Z,78.36
2022-11-18T16:18:03.668Z,77.88
2022-11-18T16:20:32.495Z,78.01
2022-11-18T16:23:01.277Z,77.81
2022-11-18T16:25:30.464Z,77.85
2022-11-18T16:28:07.229Z,77.72
2022-11-18T16:30:56.133Z,78.12
2022-11-18T16:33:24.761Z,77.92
2022-11-18T16:35:53.445Z,77.58
2022-11-18T16:38:22.185Z,77.68
2022-11-18T16:40:58.405Z,77.94
2022-11-18T16:43:27.590Z,77.77
2022-11-18T16:45:56.415Z,77.75
2022-11-18T16:48:25.751Z,77.74
2022-11-18T16:51:20.564Z,77.81
2022-11-18T16:53:53.926Z,78.06
2022-11-18T16:56:24.481Z,77.81
2022-11-18T16:59:08.045Z,77.88
2022-11-18T17:01:36.808Z,77.75
2022-11-18T17:04:06.392Z,78.03
2022-11-18T17:06:35.189Z,78.05
2022-11-18T17:09:04.518Z,77.75
2022-11-18T17:11:34.129Z,77.98
2022-11-18T17:14:03.108Z,77.78
2022-11-18T17:16:31.960Z,77.68
2022-11-18T17:19:02.208Z,77.50
2022-11-18T17:21:33.701Z,77.73
2022-11-18T17:24:05.470Z,77.65
2022-11-18T17:26:34.767Z,77.51
2022-11-18T17:29:03.955Z,77.40
2022-11-18T17:31:33.484Z,77.39
2022-11-18T17:34:02.518Z,77.57
2022-11-18T17:36:31.219Z,77.52
2022-11-18T17:39:01.069Z,77.44
2022-11-18T17:41:49.277Z,77.26
2022-11-18T17:44:19.019Z,77.40
2022-11-18T17:46:47.990Z,77.60
2022-11-18T17:49:18.635Z,77.51
2022-11-18T17:51:48.097Z,77.58
2022-11-18T17:54:17.111Z,77.58
2022-11-18T17:56:47.639Z,77.63
2022-11-18T17:59:17.689Z,77.53
2022-11-18T18:01:46.514Z,77.52
2022-11-18T18:04:31.387Z,77.62
2022-11-18T18:07:29.753Z,77.38
2022-11-18T18:10:30.814Z,77.34
2022-11-18T18:13:44.727Z,77.28
2022-11-18T18:16:34.640Z,77.33
2022-11-18T18:19:28.313Z,77.42
2022-11-18T18:22:14.353Z,77.24
2022-11-18T18:25:08.274Z,77.01
2022-11-18T18:27:54.102Z,77.15
2022-11-18T18:30:52.626Z,77.25
2022-11-18T18:33:58.309Z,77.27
2022-11-18T18:36:48.433Z,77.15
2022-11-18T18:39:34.052Z,77.30
2022-11-18T18:42:14.609Z,77.15
2022-11-18T18:45:22.064Z,77.07
2022-11-18T18:48:06.040Z,77.38
2022-11-18T18:50:35.080Z,77.25
2022-11-18T18:53:03.731Z,77.32
2022-11-18T18:55:32.419Z,77.33
2022-11-18T18:58:01.291Z,77.20
2022-11-18T19:00:30.147Z,77.07
2022-11-18T19:02:58.998Z,77.23
2022-11-18T19:06:03.251Z,77.10
2022-11-18T19:08:19.731Z,77.16
2022-11-18T19:10:48.678Z,76.96
2022-11-18T19:13:17.266Z,77.21
2022-11-18T19:15:46.264Z,77.02
2022-11-18T19:18:15.311Z,77.17
2022-11-18T19:20:44.212Z,77.15
2022-11-18T19:23:18.087Z,77.14
2022-11-18T19:25:46.971Z,77.21
2022-11-18T19:28:16.113Z,77.27
2022-11-18T19:30:45.119Z,77.25
2022-11-18T19:33:13.691Z,77.42
2022-11-18T19:35:42.589Z,77.13
2022-11-18T19:38:11.626Z,76.96
2022-11-18T19:40:40.233Z,77.21
2022-11-18T19:43:09.044Z,77.24
2022-11-18T19:45:38.081Z,77.36
2022-11-18T19:48:06.683Z,77.20
2022-11-18T19:50:35.301Z,77.22
2022-11-18T19:53:24.417Z,77.10
2022-11-18T19:55:55.164Z,77.15
2022-11-18T19:58:24.886Z,77.10
2022-11-18T20:00:54.093Z,76.97
2022-11-18T20:03:22.740Z,77.04
2022-11-18T20:05:55.010Z,76.97
2022-11-18T20:08:25.373Z,76.94
2022-11-18T20:10:54.052Z,76.99
2022-11-18T20:13:22.887Z,77.18
2022-11-18T20:15:51.727Z,76.87
2022-11-18T20:18:22.471Z,77.14
2022-11-18T20:20:51.508Z,77.04
2022-11-18T20:23:20.288Z,76.99
2022-11-18T20:25:49.377Z,77.02
2022-11-18T20:28:18.585Z,77.04
2022-11-18T20:30:47.525Z,76.96
2022-11-18T20:33:16.121Z,76.96
2022-11-18T20:35:45.239Z,77.07
2022-11-18T20:38:13.943Z,77.01
2022-11-18T20:40:42.515Z,76.99
2022-11-18T20:43:14.661Z,77.01
2022-11-18T20:45:46.314Z,76.98
2022-11-18T20:48:15.163Z,76.68
2022-11-18T20:50:44.110Z,76.93
2022-11-18T20:53:12.911Z,76.91
2022-11-18T20:55:41.772Z,77.24
2022-11-18T20:58:10.643Z,77.12
2022-11-18T21:00:39.958Z,77.05
2022-11-18T21:03:08.798Z,77.21
2022-11-18T21:05:37.767Z,77.25
2022-11-18T21:08:08.005Z,77.22
2022-11-18T21:10:37.522Z,77.03
2022-11-18T21:13:26.471Z,76.84
2022-11-18T21:15:55.411Z,77.24
2022-11-18T21:18:23.978Z,77.12
2022-11-18T21:21:16.312Z,77.23
2022-11-18T21:23:45.365Z,77.01
2022-11-18T21:26:14.627Z,77.02
2022-11-18T21:28:43.366Z,77.13
2022-11-18T21:31:12.355Z,77.40
2022-11-18T21:33:41.066Z,77.42
2022-11-18T21:36:10.649Z,77.31
2022-11-18T21:38:39.636Z,77.08
2022-11-18T21:41:09.262Z,77.09
2022-11-18T21:46:28.054Z,77.00
2022-11-18T21:49:00.401Z,76.98
2022-11-18T21:51:32.323Z,77.05
2022-11-18T21:54:01.735Z,77.06
2022-11-18T21:56:31.557Z,77.09
2022-11-18T21:59:02.240Z,76.93
2022-11-18T22:01:33.760Z,76.87
2022-11-18T22:04:05.179Z,77.05
2022-11-18T22:06:35.007Z,76.86
2022-11-18T22:09:04.387Z,77.06
2022-11-18T22:11:32.997Z,76.97
2022-11-18T22:14:02.359Z,77.07
2022-11-18T22:16:31.494Z,77.06
2022-11-18T22:19:04.984Z,77.18
2022-11-18T22:21:37.333Z,76.81
2022-11-18T22:24:06.246Z,76.95
2022-11-18T22:26:35.016Z,76.97
2022-11-18T22:29:04.109Z,76.91
2022-11-18T22:31:33.206Z,77.11
2022-11-18T22:34:01.685Z,77.02
2022-11-18T22:36:32.438Z,76.88
2022-11-18T22:39:01.373Z,76.95
2022-11-18T22:41:49.597Z,77.05
2022-11-18T22:44:18.868Z,76.88
2022-11-18T22:46:47.510Z,77.21
2022-11-18T22:49:16.261Z,77.02
2022-11-18T22:51:45.026Z,77.21
2022-11-18T22:54:37.801Z,76.98
2022-11-18T22:57:02.966Z,77.22
2022-11-18T22:59:31.826Z,77.15
2022-11-18T23:02:02.003Z,77.09
2022-11-18T23:04:31.197Z,77.14
2022-11-18T23:06:59.875Z,77.37
2022-11-18T23:09:28.653Z,77.09
2022-11-18T23:12:16.544Z,77.33
2022-11-18T23:14:45.666Z,77.16
2022-11-18T23:17:16.192Z,77.00
2022-11-18T23:19:44.937Z,77.05
2022-11-18T23:22:13.959Z,77.33
2022-11-18T23:24:42.957Z,77.22
2022-11-18T23:27:12.131Z,77.25
2022-11-18T23:29:40.780Z,77.19
2022-11-18T23:32:10.004Z,76.97
2022-11-18T23:34:38.936Z,77.14
2022-11-18T23:37:07.498Z,76.96
2022-11-18T23:39:37.605Z,77.33
2022-11-18T23:42:06.402Z,76.95
2022-11-18T23:44:47.142Z,77.18
2022-11-18T23:47:16.848Z,77.32
2022-11-18T23:49:45.675Z,77.23
2022-11-18T23:52:15.220Z,76.94
2022-11-18T23:54:43.956Z,77.34
2022-11-18T23:57:12.663Z,77.05
2022-11-18T23:59:42.277Z,77.07
